Time;durP1;ratioP1;P1;durP2;ratioP2;P2;SDS_P1;SDS_P2;PMS_P1;PMS_P2;Temp;Humidity;BMP_temperature;BMP_pressure;BME280_temperature;BME280_humidity;BME280_pressure;Samples;Min_cycle;Max_cycle;Signal;HPM_P1;HPM_P2
2023/12/25 00:01:29;;;;;;;18.70;8.87;;;;;;;;;;4965200;28;20210;-83
2023/12/25 00:03:56;;;;;;;14.53;7.87;;;;;;;;;;4967885;28;20217;-85
2023/12/25 00:06:26;;;;;;;15.30;7.20;;;;;;;;;;4956977;28;20289;-83
2023/12/25 00:08:54;;;;;;;21.97;8.40;;;;;;;;;;4982018;28;20226;-85
2023/12/25 00:11:22;;;;;;;19.57;8.47;;;;;;;;;;5002075;28;20230;-84
2023/12/25 00:13:54;;;;;;;19.70;8.17;;;;;;;;;;4968749;28;20210;-84
2023/12/25 00:16:26;;;;;;;19.43;8.17;;;;;;;;;;4980391;28;20207;-83
2023/12/25 00:18:56;;;;;;;8.17;6.67;;;;;;;;;;5049521;28;20721;-84
2023/12/25 00:21:30;;;;;;;16.17;7.50;;;;;;;;;;5049599;28;20195;-83
2023/12/25 00:23:59;;;;;;;14.83;8.73;;;;;;;;;;5048997;28;20676;-87
2023/12/25 00:26:28;;;;;;;18.80;7.57;;;;;;;;;;5049740;28;20211;-84
2023/12/25 00:28:57;;;;;;;12.83;6.70;;;;;;;;;;5049630;28;20249;-84
2023/12/25 00:31:28;;;;;;;14.97;6.30;;;;;;;;;;5048586;28;20306;-84
2023/12/25 00:33:56;;;;;;;23.30;8.33;;;;;;;;;;5049702;28;20788;-83
2023/12/25 00:36:24;;;;;;;19.10;8.33;;;;;;;;;;5049687;28;20194;-84
2023/12/25 00:38:53;;;;;;;16.03;7.97;;;;;;;;;;5049507;28;20195;-84
2023/12/25 00:41:23;;;;;;;11.90;6.97;;;;;;;;;;5049960;28;20227;-84
2023/12/25 00:43:52;;;;;;;14.87;8.23;;;;;;;;;;5049649;28;20210;-85
2023/12/25 00:46:22;;;;;;;14.70;6.20;;;;;;;;;;5036698;28;20304;-84
2023/12/25 00:48:52;;;;;;;13.53;8.43;;;;;;;;;;4967592;28;20229;-84
2023/12/25 00:51:20;;;;;;;13.63;7.57;;;;;;;;;;4967805;28;20688;-84
2023/12/25 00:53:49;;;;;;;19.20;7.63;;;;;;;;;;4967909;28;20252;-84
2023/12/25 00:56:17;;;;;;;19.80;9.93;;;;;;;;;;4968450;28;20205;-85
2023/12/25 00:58:46;;;;;;;24.37;11.43;;;;;;;;;;4967757;28;20324;-83
2023/12/25 01:01:17;;;;;;;16.73;8.60;;;;;;;;;;4966940;28;20659;-84
2023/12/25 01:03:46;;;;;;;19.77;7.93;;;;;;;;;;4967972;28;20229;-83
2023/12/25 01:06:15;;;;;;;15.93;7.60;;;;;;;;;;4968360;28;20234;-83
2023/12/25 01:08:43;;;;;;;14.63;6.43;;;;;;;;;;4966908;28;20282;-83
2023/12/25 01:11:13;;;;;;;12.77;6.07;;;;;;;;;;4968128;28;20214;-84
2023/12/25 01:13:43;;;;;;;14.53;5.53;;;;;;;;;;4967513;28;20214;-84
2023/12/25 01:16:11;;;;;;;15.50;7.17;;;;;;;;;;4968699;28;20296;-84
2023/12/25 01:18:38;;;;;;;15.90;7.77;;;;;;;;;;4967927;28;20293;-85
2023/12/25 01:21:07;;;;;;;12.47;7.23;;;;;;;;;;4968052;28;20198;-83
2023/12/25 01:23:39;;;;;;;9.73;6.07;;;;;;;;;;4967436;28;20730;-83
2023/12/25 01:26:06;;;;;;;35.23;10.73;;;;;;;;;;4967126;28;20694;-84
2023/12/25 01:28:35;;;;;;;14.43;7.53;;;;;;;;;;4967796;28;20275;-84
2023/12/25 01:31:03;;;;;;;24.70;5.63;;;;;;;;;;4969581;28;20216;-84
2023/12/25 01:33:31;;;;;;;18.13;7.37;;;;;;;;;;4970383;28;20242;-84
2023/12/25 01:36:02;;;;;;;19.33;8.53;;;;;;;;;;4971151;28;20198;-84
2023/12/25 01:38:30;;;;;;;11.83;6.00;;;;;;;;;;4970213;28;20209;-84
2023/12/25 01:41:01;;;;;;;17.83;8.20;;;;;;;;;;4971321;28;20282;-83
2023/12/25 01:43:31;;;;;;;14.17;4.93;;;;;;;;;;4970941;28;20622;-83
2023/12/25 01:46:00;;;;;;;15.00;6.87;;;;;;;;;;4969568;28;20576;-83
2023/12/25 01:48:31;;;;;;;16.17;7.53;;;;;;;;;;4970601;28;20219;-84
2023/12/25 01:51:04;;;;;;;13.23;6.70;;;;;;;;;;4958005;28;20207;-82
2023/12/25 01:53:33;;;;;;;14.50;6.10;;;;;;;;;;4951634;29;20214;-84
2023/12/25 01:56:03;;;;;;;10.97;5.23;;;;;;;;;;4951919;28;20203;-84
2023/12/25 01:58:33;;;;;;;8.17;5.53;;;;;;;;;;4952219;28;20671;-84
2023/12/25 02:01:01;;;;;;;12.47;6.60;;;;;;;;;;4949919;28;20207;-84
2023/12/25 02:03:30;;;;;;;13.30;7.07;;;;;;;;;;4950333;29;20218;-86
2023/12/25 02:05:58;;;;;;;10.33;7.10;;;;;;;;;;4950094;28;20187;-84
2023/12/25 02:08:28;;;;;;;19.80;7.87;;;;;;;;;;4954824;28;20228;-84
2023/12/25 02:11:02;;;;;;;14.97;7.27;;;;;;;;;;4971952;29;20202;-84
2023/12/25 02:13:31;;;;;;;13.87;7.37;;;;;;;;;;4972808;28;20229;-86
2023/12/25 02:16:00;;;;;;;19.73;6.53;;;;;;;;;;4975044;28;20225;-84
2023/12/25 02:18:30;;;;;;;11.17;5.03;;;;;;;;;;4953535;29;20202;-84
2023/12/25 02:20:58;;;;;;;9.07;5.37;;;;;;;;;;4957279;28;20207;-83
2023/12/25 02:23:26;;;;;;;15.00;7.30;;;;;;;;;;4952446;28;20646;-83
2023/12/25 02:25:57;;;;;;;18.63;8.27;;;;;;;;;;4952358;29;20770;-83
2023/12/25 02:28:25;;;;;;;15.03;7.07;;;;;;;;;;4951255;28;20191;-83
2023/12/25 02:30:54;;;;;;;15.20;6.57;;;;;;;;;;4950270;28;20241;-83
2023/12/25 02:33:23;;;;;;;13.40;6.07;;;;;;;;;;4951939;29;20269;-83
2023/12/25 02:35:54;;;;;;;17.00;6.37;;;;;;;;;;4952280;29;20202;-84
2023/12/25 02:38:23;;;;;;;9.10;5.23;;;;;;;;;;4956655;28;20237;-83
2023/12/25 02:40:54;;;;;;;9.67;5.47;;;;;;;;;;4971213;28;20312;-84
2023/12/25 02:43:24;;;;;;;9.80;4.30;;;;;;;;;;4969505;28;20221;-82
2023/12/25 02:45:52;;;;;;;11.47;5.03;;;;;;;;;;4969863;28;20198;-84
2023/12/25 02:48:23;;;;;;;8.97;4.60;;;;;;;;;;4970059;28;20212;-84
2023/12/25 02:50:51;;;;;;;12.33;4.93;;;;;;;;;;4969709;28;20194;-83
2023/12/25 02:53:20;;;;;;;7.57;4.43;;;;;;;;;;4969817;28;20238;-84
2023/12/25 02:55:49;;;;;;;11.97;4.67;;;;;;;;;;4969744;28;20278;-84
2023/12/25 02:58:17;;;;;;;7.77;4.10;;;;;;;;;;4969655;28;20194;-83
2023/12/25 03:00:47;;;;;;;6.33;4.53;;;;;;;;;;4970564;28;20330;-84
2023/12/25 03:03:15;;;;;;;8.10;5.50;;;;;;;;;;4970152;28;20655;-84
2023/12/25 03:05:44;;;;;;;13.87;6.43;;;;;;;;;;4968540;28;20199;-84
2023/12/25 03:08:13;;;;;;;10.53;5.40;;;;;;;;;;4969109;28;20769;-84
2023/12/25 03:10:44;;;;;;;15.57;6.50;;;;;;;;;;4970385;28;20206;-84
2023/12/25 03:13:12;;;;;;;10.17;6.57;;;;;;;;;;4969352;28;20317;-84
2023/12/25 03:15:41;;;;;;;8.13;4.47;;;;;;;;;;4969958;28;20209;-84
2023/12/25 03:18:10;;;;;;;7.80;4.70;;;;;;;;;;4970070;28;20194;-84
2023/12/25 03:20:41;;;;;;;7.80;5.33;;;;;;;;;;4970230;28;20351;-85
2023/12/25 03:23:11;;;;;;;9.13;5.47;;;;;;;;;;4969281;28;20233;-84
2023/12/25 03:25:40;;;;;;;10.07;6.10;;;;;;;;;;4969784;28;20264;-83
2023/12/25 03:28:08;;;;;;;7.90;4.63;;;;;;;;;;4968855;28;20241;-83
2023/12/25 03:30:37;;;;;;;9.60;5.23;;;;;;;;;;4970114;28;20259;-85
2023/12/25 03:33:07;;;;;;;17.50;6.47;;;;;;;;;;4969944;28;20242;-83
2023/12/25 03:35:36;;;;;;;14.03;5.50;;;;;;;;;;4968929;28;20293;-83
2023/12/25 03:38:04;;;;;;;8.50;5.63;;;;;;;;;;4970767;28;20655;-84
2023/12/25 03:40:33;;;;;;;10.13;5.63;;;;;;;;;;4970576;28;20202;-83
2023/12/25 03:43:00;;;;;;;7.83;5.57;;;;;;;;;;4981914;28;20202;-85
2023/12/25 03:45:30;;;;;;;6.70;5.03;;;;;;;;;;4986953;28;20202;-83
2023/12/25 03:48:00;;;;;;;10.23;6.03;;;;;;;;;;4973362;28;20706;-84
2023/12/25 03:50:29;;;;;;;9.17;4.67;;;;;;;;;;4971841;28;20289;-82
2023/12/25 03:53:01;;;;;;;7.67;5.30;;;;;;;;;;4973266;28;20287;-83
2023/12/25 03:55:29;;;;;;;4.50;3.77;;;;;;;;;;4975281;28;20190;-82
2023/12/25 03:57:57;;;;;;;7.43;3.47;;;;;;;;;;4972026;28;20229;-84
2023/12/25 04:00:26;;;;;;;4.17;3.57;;;;;;;;;;4969885;28;20190;-84
2023/12/25 04:02:55;;;;;;;7.23;2.90;;;;;;;;;;4970162;28;20205;-84
2023/12/25 04:05:25;;;;;;;10.67;3.13;;;;;;;;;;4970347;28;20650;-85
2023/12/25 04:07:54;;;;;;;3.50;3.10;;;;;;;;;;4969418;28;20292;-84
2023/12/25 04:10:22;;;;;;;4.83;2.47;;;;;;;;;;4969786;28;20198;-85
2023/12/25 04:12:52;;;;;;;9.93;2.57;;;;;;;;;;4969532;28;20243;-82
2023/12/25 04:15:20;;;;;;;3.33;2.67;;;;;;;;;;4970215;28;20281;-83
2023/12/25 04:17:49;;;;;;;6.50;4.17;;;;;;;;;;4969690;28;20214;-84
2023/12/25 04:20:17;;;;;;;9.00;4.20;;;;;;;;;;4969350;28;20198;-83
2023/12/25 04:22:48;;;;;;;7.30;3.90;;;;;;;;;;4970668;28;20244;-84
2023/12/25 04:25:16;;;;;;;13.50;4.47;;;;;;;;;;4971236;28;20198;-84
2023/12/25 04:27:47;;;;;;;7.77;3.90;;;;;;;;;;4971203;28;20198;-83
2023/12/25 04:30:18;;;;;;;8.13;4.63;;;;;;;;;;4971489;28;20202;-83
2023/12/25 04:32:47;;;;;;;3.97;2.67;;;;;;;;;;4971526;28;20637;-83
2023/12/25 04:35:17;;;;;;;3.37;2.57;;;;;;;;;;4970907;28;20213;-84
2023/12/25 04:37:47;;;;;;;3.30;3.00;;;;;;;;;;4973140;28;20206;-84
2023/12/25 04:40:18;;;;;;;6.60;3.53;;;;;;;;;;4971858;28;20703;-84
2023/12/25 04:42:47;;;;;;;3.90;2.20;;;;;;;;;;4971433;28;20728;-84
2023/12/25 04:45:18;;;;;;;2.20;2.00;;;;;;;;;;4970551;28;20281;-85
2023/12/25 04:47:51;;;;;;;3.03;2.83;;;;;;;;;;4970724;28;20560;-83
2023/12/25 04:50:19;;;;;;;5.67;3.10;;;;;;;;;;4969672;28;20228;-83
2023/12/25 04:52:48;;;;;;;2.80;2.60;;;;;;;;;;4969417;28;20651;-84
2023/12/25 04:55:17;;;;;;;4.07;2.63;;;;;;;;;;4973527;28;20592;-84
2023/12/25 04:57:46;;;;;;;5.47;2.27;;;;;;;;;;4993011;28;20170;-84
2023/12/25 05:00:17;;;;;;;5.03;2.83;;;;;;;;;;4992855;28;20201;-83
2023/12/25 05:02:45;;;;;;;6.20;3.00;;;;;;;;;;4993342;28;20197;-85
2023/12/25 05:05:16;;;;;;;12.93;3.50;;;;;;;;;;4974134;28;20259;-84
2023/12/25 05:07:44;;;;;;;2.77;2.27;;;;;;;;;;4973400;28;20622;-84
2023/12/25 05:10:12;;;;;;;6.37;2.67;;;;;;;;;;4972365;28;20233;-84
2023/12/25 05:12:42;;;;;;;5.40;2.73;;;;;;;;;;4971422;28;20229;-84
2023/12/25 05:15:11;;;;;;;5.70;2.83;;;;;;;;;;4973262;28;20195;-84
2023/12/25 05:17:41;;;;;;;2.83;2.37;;;;;;;;;;4972354;28;20273;-84
2023/12/25 05:20:12;;;;;;;5.40;2.60;;;;;;;;;;4972311;28;20206;-86
2023/12/25 05:22:42;;;;;;;3.30;2.60;;;;;;;;;;4973788;28;20305;-84
2023/12/25 05:25:11;;;;;;;3.97;2.80;;;;;;;;;;4973717;28;20253;-83
2023/12/25 05:27:40;;;;;;;6.23;3.03;;;;;;;;;;4971888;28;20267;-83
2023/12/25 05:30:10;;;;;;;7.40;3.13;;;;;;;;;;4972781;28;20720;-84
2023/12/25 05:32:39;;;;;;;4.77;2.90;;;;;;;;;;4971795;28;20249;-83
2023/12/25 05:35:10;;;;;;;4.20;2.93;;;;;;;;;;4971394;28;20241;-84
2023/12/25 05:37:38;;;;;;;4.20;2.80;;;;;;;;;;4977479;28;20206;-85
2023/12/25 05:40:08;;;;;;;6.97;2.77;;;;;;;;;;4975349;28;20226;-84
2023/12/25 05:42:37;;;;;;;5.00;2.00;;;;;;;;;;4980706;28;20229;-84
2023/12/25 05:45:05;;;;;;;5.33;2.37;;;;;;;;;;4978783;28;20228;-84
2023/12/25 05:47:34;;;;;;;7.57;2.67;;;;;;;;;;5105432;22;20248;-84
2023/12/25 05:50:02;;;;;;;2.33;2.13;;;;;;;;;;4977538;28;20234;-84
2023/12/25 05:52:32;;;;;;;5.63;2.20;;;;;;;;;;4976825;28;20202;-83
2023/12/25 05:55:01;;;;;;;8.40;2.53;;;;;;;;;;4977470;28;20251;-84
2023/12/25 05:57:33;;;;;;;2.83;2.20;;;;;;;;;;4982898;28;20202;-83
2023/12/25 06:00:04;;;;;;;5.47;2.00;;;;;;;;;;4975909;28;20659;-85
2023/12/25 06:02:34;;;;;;;6.90;3.13;;;;;;;;;;4975583;28;20198;-83
2023/12/25 06:05:02;;;;;;;4.93;2.87;;;;;;;;;;4975561;28;20202;-84
2023/12/25 06:07:33;;;;;;;8.27;2.50;;;;;;;;;;4975358;28;20224;-84
2023/12/25 06:10:01;;;;;;;8.73;3.20;;;;;;;;;;4975672;28;20202;-85
2023/12/25 06:12:29;;;;;;;3.57;2.40;;;;;;;;;;4975158;28;20213;-83
2023/12/25 06:15:05;;;;;;;5.27;2.57;;;;;;;;;;4975555;28;20238;-85
2023/12/25 06:17:37;;;;;;;6.03;3.20;;;;;;;;;;4974614;28;20206;-83
2023/12/25 06:20:07;;;;;;;11.10;3.63;;;;;;;;;;4971218;28;20233;-86
2023/12/25 06:22:42;;;;;;;9.33;3.13;;;;;;;;;;4971097;28;20632;-84
2023/12/25 06:25:11;;;;;;;3.73;2.50;;;;;;;;;;4967939;28;20218;-85
2023/12/25 06:27:43;;;;;;;10.60;4.17;;;;;;;;;;4969313;28;20214;-84
2023/12/25 06:30:12;;;;;;;9.20;4.23;;;;;;;;;;4977074;28;20225;-85
2023/12/25 06:32:45;;;;;;;7.37;2.80;;;;;;;;;;5094154;23;20242;-86
2023/12/25 06:35:14;;;;;;;3.97;3.37;;;;;;;;;;5065530;28;20230;-84
2023/12/25 06:37:46;;;;;;;6.73;3.17;;;;;;;;;;5065942;28;20187;-84
2023/12/25 06:40:14;;;;;;;6.93;3.13;;;;;;;;;;5064624;28;20558;-84
2023/12/25 06:42:49;;;;;;;9.33;5.10;;;;;;;;;;5062604;28;20253;-84
2023/12/25 06:45:19;;;;;;;9.73;4.60;;;;;;;;;;5063577;28;20285;-85
2023/12/25 06:47:52;;;;;;;3.70;3.13;;;;;;;;;;5065026;28;20206;-84
2023/12/25 06:50:22;;;;;;;5.13;3.33;;;;;;;;;;5063335;28;20194;-84
2023/12/25 06:52:55;;;;;;;5.73;3.27;;;;;;;;;;5062482;28;20271;-83
2023/12/25 06:55:52;;;;;;;7.43;4.00;;;;;;;;;;5065473;28;20230;-80
2023/12/25 06:58:21;;;;;;;4.93;2.90;;;;;;;;;;5060882;28;20202;-83
2023/12/25 07:00:51;;;;;;;9.97;3.67;;;;;;;;;;5060582;28;20826;-86
2023/12/25 07:03:22;;;;;;;9.97;3.40;;;;;;;;;;5060028;28;20199;-84
2023/12/25 07:06:03;;;;;;;4.70;3.50;;;;;;;;;;5057988;28;20203;-86
2023/12/25 07:08:32;;;;;;;4.70;3.40;;;;;;;;;;5059701;28;20203;-83
2023/12/25 07:16:22;;;;;;;3.60;3.30;;;;;;;;;;5455959;22;20234;-85
2023/12/25 07:18:52;;;;;;;6.00;2.80;;;;;;;;;;5085980;28;20615;-85
2023/12/25 07:21:22;;;;;;;5.17;2.87;;;;;;;;;;5089498;28;20197;-83
2023/12/25 07:23:50;;;;;;;4.33;3.03;;;;;;;;;;5088192;28;20195;-84
2023/12/25 07:26:34;;;;;;;5.50;3.20;;;;;;;;;;5091574;28;20190;-85
2023/12/25 07:40:12;;;;;;;8.70;3.10;;;;;;;;;;5273708;22;20232;-84
2023/12/25 07:45:09;;;;;;;3.92;3.00;;;;;;;;;;5074663;28;20205;-83
2023/12/25 07:47:37;;;;;;;8.07;3.53;;;;;;;;;;5071669;28;20498;-84
2023/12/25 07:50:07;;;;;;;6.07;3.83;;;;;;;;;;5070136;28;20193;-85
2023/12/25 07:52:50;;;;;;;6.30;3.45;;;;;;;;;;5076407;28;20176;-86
2023/12/25 07:55:21;;;;;;;6.63;2.85;;;;;;;;;;5076303;28;20222;-85
2023/12/25 07:57:51;;;;;;;5.15;3.35;;;;;;;;;;5072042;28;20263;-83
2023/12/25 08:00:18;;;;;;;6.85;3.25;;;;;;;;;;5064384;28;20195;-83
2023/12/25 08:02:49;;;;;;;5.25;3.35;;;;;;;;;;5065049;28;20212;-82
2023/12/25 08:05:18;;;;;;;7.13;2.70;;;;;;;;;;5063670;28;20204;-84
2023/12/25 08:07:47;;;;;;;3.35;2.88;;;;;;;;;;5061988;28;20200;-83
2023/12/25 08:10:17;;;;;;;8.75;3.80;;;;;;;;;;5062838;28;20195;-84
2023/12/25 08:12:47;;;;;;;5.90;3.72;;;;;;;;;;5061444;28;20205;-84
2023/12/25 08:15:19;;;;;;;9.23;4.18;;;;;;;;;;5063655;28;20226;-84
2023/12/25 08:17:52;;;;;;;9.48;4.13;;;;;;;;;;5063266;28;20202;-84
2023/12/25 08:20:29;;;;;;;3.45;3.15;;;;;;;;;;5063991;28;20186;-84
2023/12/25 08:23:04;;;;;;;5.95;3.97;;;;;;;;;;5062475;28;20196;-85
2023/12/25 08:25:33;;;;;;;3.35;3.08;;;;;;;;;;5062443;28;20189;-83
2023/12/25 08:28:20;;;;;;;3.88;2.90;;;;;;;;;;5063122;28;20191;-83
2023/12/25 08:30:52;;;;;;;6.10;3.20;;;;;;;;;;5060107;28;20674;-84
2023/12/25 08:33:21;;;;;;;6.90;2.80;;;;;;;;;;5060710;28;20276;-84
2023/12/25 08:36:16;;;;;;;4.37;2.90;;;;;;;;;;5062494;28;20240;-84
2023/12/25 08:38:45;;;;;;;3.00;2.70;;;;;;;;;;5052794;28;20230;-83
2023/12/25 08:41:14;;;;;;;5.65;1.98;;;;;;;;;;5058997;28;20238;-85
2023/12/25 08:43:44;;;;;;;4.00;2.07;;;;;;;;;;5054890;28;20811;-83
2023/12/25 08:46:14;;;;;;;3.78;2.08;;;;;;;;;;5054197;28;20565;-85
2023/12/25 08:48:44;;;;;;;4.30;2.83;;;;;;;;;;5052355;28;20325;-84
2023/12/25 08:51:14;;;;;;;4.47;2.40;;;;;;;;;;5056312;28;20225;-83
2023/12/25 08:53:44;;;;;;;4.97;2.25;;;;;;;;;;5039878;28;20268;-83
2023/12/25 08:56:13;;;;;;;4.45;2.45;;;;;;;;;;5055223;28;20235;-84
2023/12/25 08:58:42;;;;;;;2.78;2.63;;;;;;;;;;5043800;28;20216;-84
2023/12/25 09:01:11;;;;;;;3.20;2.15;;;;;;;;;;5052489;28;20267;-83
2023/12/25 09:03:41;;;;;;;5.20;2.75;;;;;;;;;;5054481;28;20228;-83
2023/12/25 09:06:12;;;;;;;3.58;2.42;;;;;;;;;;5050416;28;20220;-84
2023/12/25 09:08:41;;;;;;;4.78;3.03;;;;;;;;;;5049870;28;20218;-83
2023/12/25 09:11:10;;;;;;;2.67;2.47;;;;;;;;;;5045585;28;20225;-85
2023/12/25 09:13:39;;;;;;;2.80;2.07;;;;;;;;;;5045172;28;20233;-85
2023/12/25 09:16:07;;;;;;;2.58;2.13;;;;;;;;;;5043052;28;20222;-84
2023/12/25 09:18:35;;;;;;;3.47;2.75;;;;;;;;;;5048122;28;20316;-83
2023/12/25 09:21:07;;;;;;;2.50;2.03;;;;;;;;;;5047172;28;20226;-84
2023/12/25 09:23:36;;;;;;;3.47;2.55;;;;;;;;;;5047766;28;20224;-84
2023/12/25 09:26:05;;;;;;;2.60;2.40;;;;;;;;;;5047198;28;20232;-84
2023/12/25 09:28:37;;;;;;;2.45;2.22;;;;;;;;;;5048618;28;20285;-83
2023/12/25 09:31:12;;;;;;;3.58;2.35;;;;;;;;;;5044025;28;20236;-83
2023/12/25 09:33:41;;;;;;;3.03;2.78;;;;;;;;;;5047592;28;20229;-86
2023/12/25 09:36:11;;;;;;;9.38;2.65;;;;;;;;;;5047206;28;20229;-83
2023/12/25 09:38:40;;;;;;;7.15;2.55;;;;;;;;;;5048309;28;20309;-86
2023/12/25 09:41:18;;;;;;;5.72;2.10;;;;;;;;;;5047023;28;20722;-84
2023/12/25 09:43:50;;;;;;;3.58;2.40;;;;;;;;;;5048264;28;20237;-85
2023/12/25 09:46:18;;;;;;;3.50;2.30;;;;;;;;;;5046856;28;20732;-83
2023/12/25 09:48:50;;;;;;;6.55;2.58;;;;;;;;;;5048004;28;20226;-82
2023/12/25 09:51:22;;;;;;;6.70;2.70;;;;;;;;;;5047923;28;20776;-83
2023/12/25 09:53:50;;;;;;;3.75;1.90;;;;;;;;;;5051404;28;20305;-83
2023/12/25 09:56:22;;;;;;;3.80;2.38;;;;;;;;;;5045838;28;20538;-82
2023/12/25 09:58:50;;;;;;;3.00;2.15;;;;;;;;;;5052343;28;20226;-84
2023/12/25 10:01:21;;;;;;;3.25;2.33;;;;;;;;;;5065475;28;20675;-84
2023/12/25 10:03:49;;;;;;;2.42;2.22;;;;;;;;;;5053123;28;20351;-83
2023/12/25 10:06:17;;;;;;;5.50;2.50;;;;;;;;;;5046172;28;20263;-84
2023/12/25 10:08:49;;;;;;;5.18;2.38;;;;;;;;;;5052097;28;20218;-84
2023/12/25 10:11:19;;;;;;;4.10;2.50;;;;;;;;;;5052768;28;20228;-84
2023/12/25 10:13:48;;;;;;;4.28;2.92;;;;;;;;;;5051465;28;20644;-83
2023/12/25 10:16:17;;;;;;;4.43;2.58;;;;;;;;;;5038745;28;20239;-84
2023/12/25 10:18:46;;;;;;;3.50;2.28;;;;;;;;;;5038405;28;20252;-84
2023/12/25 10:21:16;;;;;;;4.32;2.78;;;;;;;;;;5049417;28;20626;-84
2023/12/25 10:23:44;;;;;;;3.20;2.42;;;;;;;;;;5047838;28;20239;-84
2023/12/25 10:26:30;;;;;;;3.80;2.60;;;;;;;;;;5050783;28;20776;-83
2023/12/25 10:29:15;;;;;;;6.55;2.97;;;;;;;;;;5050603;28;20241;-83
2023/12/25 10:31:47;;;;;;;3.53;2.78;;;;;;;;;;5047582;28;20624;-85
2023/12/25 10:34:19;;;;;;;2.92;2.47;;;;;;;;;;5051095;28;20227;-83
2023/12/25 10:36:49;;;;;;;7.55;2.70;;;;;;;;;;5050453;28;20249;-82
2023/12/25 10:39:33;;;;;;;3.92;2.63;;;;;;;;;;5047204;28;20236;-84
2023/12/25 10:42:05;;;;;;;3.75;2.67;;;;;;;;;;5051698;28;20315;-84
2023/12/25 10:44:35;;;;;;;3.17;2.63;;;;;;;;;;5051084;28;21233;-84
2023/12/25 10:47:08;;;;;;;2.45;2.33;;;;;;;;;;5043498;28;20227;-84
2023/12/25 10:49:37;;;;;;;4.22;3.05;;;;;;;;;;5047297;28;20231;-84
2023/12/25 10:52:07;;;;;;;9.30;2.45;;;;;;;;;;5054269;28;20234;-84
2023/12/25 10:54:37;;;;;;;3.70;2.65;;;;;;;;;;5038368;28;20239;-83
2023/12/25 10:57:08;;;;;;;3.97;2.97;;;;;;;;;;5031706;28;20224;-84
2023/12/25 10:59:43;;;;;;;2.83;2.55;;;;;;;;;;5034998;28;20697;-85
2023/12/25 11:02:17;;;;;;;6.45;2.88;;;;;;;;;;5049246;28;20244;-84
2023/12/25 11:04:49;;;;;;;2.72;2.58;;;;;;;;;;5045238;28;20309;-84
2023/12/25 11:07:26;;;;;;;4.05;2.28;;;;;;;;;;5049218;28;20225;-83
2023/12/25 11:09:58;;;;;;;4.85;2.15;;;;;;;;;;5047899;28;20275;-84
2023/12/25 11:12:28;;;;;;;6.05;2.63;;;;;;;;;;5052238;28;20229;-85
2023/12/25 11:14:57;;;;;;;9.93;2.30;;;;;;;;;;5047047;28;20686;-85
2023/12/25 11:17:27;;;;;;;6.35;2.83;;;;;;;;;;5047093;28;20248;-85
2023/12/25 11:19:57;;;;;;;2.67;2.47;;;;;;;;;;5049223;28;20226;-84
2023/12/25 11:22:36;;;;;;;3.38;2.20;;;;;;;;;;5062730;28;20313;-84
2023/12/25 11:25:07;;;;;;;2.58;2.25;;;;;;;;;;5047171;28;20730;-85
2023/12/25 11:27:38;;;;;;;5.57;2.50;;;;;;;;;;5048506;28;20343;-83
2023/12/25 11:30:08;;;;;;;3.83;2.65;;;;;;;;;;5045716;28;20244;-84
2023/12/25 11:32:37;;;;;;;2.80;2.13;;;;;;;;;;5047690;28;20787;-86
2023/12/25 11:35:06;;;;;;;2.58;2.00;;;;;;;;;;5040848;28;20297;-84
2023/12/25 11:37:36;;;;;;;4.85;2.28;;;;;;;;;;5048056;28;20671;-84
2023/12/25 11:40:06;;;;;;;6.03;2.30;;;;;;;;;;5044777;28;20220;-85
2023/12/25 11:42:39;;;;;;;7.40;2.83;;;;;;;;;;5050233;28;20217;-84
2023/12/25 11:45:09;;;;;;;9.07;2.40;;;;;;;;;;5047820;28;20257;-85
2023/12/25 11:47:44;;;;;;;2.47;2.17;;;;;;;;;;5049581;28;20289;-85
2023/12/25 11:50:19;;;;;;;4.20;2.40;;;;;;;;;;5042369;28;20245;-85
2023/12/25 11:52:53;;;;;;;4.32;2.63;;;;;;;;;;5050597;28;20231;-85
2023/12/25 11:55:22;;;;;;;5.13;2.10;;;;;;;;;;5048050;28;20237;-85
2023/12/25 11:57:55;;;;;;;3.20;2.67;;;;;;;;;;5049473;28;20285;-84
2023/12/25 12:00:24;;;;;;;3.80;2.60;;;;;;;;;;5049262;28;20299;-84
2023/12/25 12:02:56;;;;;;;4.63;3.25;;;;;;;;;;5049310;28;20253;-84
2023/12/25 12:05:23;;;;;;;2.95;2.47;;;;;;;;;;5049675;28;20675;-84
2023/12/25 12:07:53;;;;;;;6.20;2.70;;;;;;;;;;5048857;28;20274;-85
2023/12/25 12:10:22;;;;;;;4.88;2.40;;;;;;;;;;5057995;28;20279;-84
2023/12/25 12:12:57;;;;;;;3.10;2.47;;;;;;;;;;5067994;28;20288;-83
2023/12/25 12:15:28;;;;;;;2.47;2.25;;;;;;;;;;5052308;28;20318;-85
2023/12/25 12:17:58;;;;;;;3.70;2.72;;;;;;;;;;5051101;28;20227;-84
2023/12/25 12:20:30;;;;;;;2.72;2.53;;;;;;;;;;5044349;28;20248;-86
2023/12/25 12:22:59;;;;;;;4.65;2.55;;;;;;;;;;5047483;28;20239;-85
2023/12/25 12:25:31;;;;;;;4.28;2.80;;;;;;;;;;5049162;28;20231;-85
2023/12/25 12:28:04;;;;;;;4.90;2.67;;;;;;;;;;5048937;28;20218;-84
2023/12/25 12:30:34;;;;;;;12.55;3.00;;;;;;;;;;5038139;28;20240;-85
2023/12/25 12:33:08;;;;;;;6.22;2.90;;;;;;;;;;5049008;28;20251;-84
2023/12/25 12:35:37;;;;;;;5.80;2.90;;;;;;;;;;5046226;28;20256;-83
2023/12/25 12:38:07;;;;;;;3.15;2.30;;;;;;;;;;5048919;28;20748;-83
2023/12/25 12:40:37;;;;;;;3.92;2.63;;;;;;;;;;5048289;28;20235;-83
2023/12/25 12:43:09;;;;;;;9.27;2.80;;;;;;;;;;5049629;28;20705;-84
2023/12/25 12:45:38;;;;;;;5.57;2.47;;;;;;;;;;5068641;28;20197;-85
2023/12/25 12:48:08;;;;;;;5.65;2.83;;;;;;;;;;5068098;28;20739;-84
2023/12/25 12:50:37;;;;;;;4.78;2.70;;;;;;;;;;5067957;28;20265;-83
2023/12/25 12:53:06;;;;;;;5.50;3.05;;;;;;;;;;5067638;28;20292;-85
2023/12/25 12:55:36;;;;;;;5.50;2.97;;;;;;;;;;5068029;28;20244;-84
2023/12/25 12:58:06;;;;;;;2.75;2.42;;;;;;;;;;5069021;28;20297;-84
2023/12/25 13:00:37;;;;;;;3.13;2.42;;;;;;;;;;5069650;28;20210;-84
2023/12/25 13:03:06;;;;;;;4.70;2.28;;;;;;;;;;5070338;28;20260;-85
2023/12/25 13:05:38;;;;;;;6.38;2.97;;;;;;;;;;5069270;28;20641;-83
2023/12/25 13:08:08;;;;;;;5.40;3.40;;;;;;;;;;5070508;28;20547;-83
2023/12/25 13:10:38;;;;;;;7.77;3.33;;;;;;;;;;5069327;28;20195;-84
2023/12/25 13:13:09;;;;;;;9.07;3.35;;;;;;;;;;5069713;28;20246;-85
2023/12/25 13:15:39;;;;;;;5.85;2.92;;;;;;;;;;5069430;28;20251;-84
2023/12/25 13:18:08;;;;;;;6.93;2.88;;;;;;;;;;5069425;28;20242;-84
2023/12/25 13:20:36;;;;;;;6.80;2.93;;;;;;;;;;5069632;28;20205;-84
2023/12/25 13:23:06;;;;;;;3.72;3.00;;;;;;;;;;5069651;28;20494;-83
2023/12/25 13:25:35;;;;;;;10.80;3.17;;;;;;;;;;5069694;28;20201;-84
2023/12/25 13:28:12;;;;;;;5.38;2.60;;;;;;;;;;5072575;28;20203;-83
2023/12/25 13:30:42;;;;;;;4.55;2.53;;;;;;;;;;5074242;28;20197;-84
2023/12/25 13:33:10;;;;;;;2.80;2.60;;;;;;;;;;5073748;28;20587;-84
2023/12/25 13:35:39;;;;;;;7.53;2.90;;;;;;;;;;5071854;28;20924;-84
2023/12/25 13:38:08;;;;;;;2.92;2.42;;;;;;;;;;5072565;28;20207;-84
2023/12/25 13:40:38;;;;;;;5.83;2.30;;;;;;;;;;5075244;28;20211;-83
2023/12/25 13:43:10;;;;;;;3.57;3.17;;;;;;;;;;5080392;28;20263;-83
2023/12/25 13:45:40;;;;;;;2.80;2.50;;;;;;;;;;5085457;28;20649;-83
2023/12/25 13:48:09;;;;;;;5.53;2.77;;;;;;;;;;5089365;28;20188;-86
2023/12/25 13:50:37;;;;;;;4.63;2.87;;;;;;;;;;5085122;28;20203;-86
2023/12/25 13:53:07;;;;;;;5.53;2.67;;;;;;;;;;5063082;28;20231;-84
2023/12/25 13:55:35;;;;;;;7.37;4.00;;;;;;;;;;5050869;28;20298;-84
2023/12/25 13:58:04;;;;;;;11.07;4.43;;;;;;;;;;5050964;28;20187;-84
2023/12/25 14:00:33;;;;;;;16.17;4.80;;;;;;;;;;5052156;28;20188;-83
2023/12/25 14:03:09;;;;;;;4.73;3.17;;;;;;;;;;5053407;28;20226;-84
2023/12/25 14:05:38;;;;;;;10.73;3.80;;;;;;;;;;5052490;28;20210;-84
2023/12/25 14:08:06;;;;;;;3.50;2.80;;;;;;;;;;5054328;28;20234;-83
2023/12/25 14:10:37;;;;;;;4.60;3.03;;;;;;;;;;5053051;28;20634;-84
2023/12/25 14:13:07;;;;;;;3.43;2.70;;;;;;;;;;5051391;28;20559;-84
2023/12/25 14:15:35;;;;;;;6.73;3.03;;;;;;;;;;5052274;28;20699;-84
2023/12/25 14:18:06;;;;;;;5.27;2.80;;;;;;;;;;5052950;28;20261;-84
2023/12/25 14:20:37;;;;;;;4.97;3.17;;;;;;;;;;5053747;28;20207;-84
2023/12/25 14:23:05;;;;;;;11.43;5.10;;;;;;;;;;5052450;28;20207;-84
2023/12/25 14:25:38;;;;;;;6.07;4.90;;;;;;;;;;5052253;28;20211;-83
2023/12/25 14:28:10;;;;;;;10.93;5.37;;;;;;;;;;5051159;28;20195;-84
2023/12/25 14:30:39;;;;;;;3.70;2.97;;;;;;;;;;5051448;28;20611;-85
2023/12/25 14:33:20;;;;;;;7.93;3.50;;;;;;;;;;5051422;28;20307;-85
2023/12/25 14:35:58;;;;;;;50.97;22.47;;;;;;;;;;5050577;28;20248;-83
2023/12/25 14:38:29;;;;;;;106.70;42.27;;;;;;;;;;5050190;28;20202;-84
2023/12/25 14:40:59;;;;;;;21.40;11.07;;;;;;;;;;5051896;28;20206;-84
2023/12/25 14:43:30;;;;;;;5.80;4.40;;;;;;;;;;5050541;28;20227;-83
2023/12/25 14:46:04;;;;;;;13.83;8.20;;;;;;;;;;5050669;28;20217;-84
2023/12/25 14:48:46;;;;;;;21.33;12.00;;;;;;;;;;5052023;28;20199;-84
2023/12/25 14:51:15;;;;;;;37.90;18.40;;;;;;;;;;5052700;28;20198;-83
2023/12/25 14:53:44;;;;;;;32.67;11.07;;;;;;;;;;5052345;28;20208;-84
2023/12/25 14:56:13;;;;;;;116.50;51.83;;;;;;;;;;5050326;28;20233;-85
2023/12/25 14:58:41;;;;;;;47.27;24.37;;;;;;;;;;5052249;28;20276;-84
2023/12/25 15:01:10;;;;;;;14.20;7.60;;;;;;;;;;5052202;28;20214;-83
2023/12/25 15:03:44;;;;;;;35.78;17.75;;;;;;;;;;5050931;28;20755;-84
2023/12/25 15:06:13;;;;;;;60.27;30.13;;;;;;;;;;5058299;28;20194;-84
2023/12/25 15:14:21;;;;;;;26.13;11.77;;;;;;;;;;5355419;22;20241;-84
2023/12/25 15:16:52;;;;;;;14.77;8.93;;;;;;;;;;5152130;22;20238;-83
2023/12/25 15:28:37;;;;;;;63.10;26.47;;;;;;;;;;5723272;22;20263;-84
2023/12/25 15:31:08;;;;;;;51.10;20.17;;;;;;;;;;5069687;28;20195;-84